Time;durP1;ratioP1;P1;durP2;ratioP2;P2;SDS_P1;SDS_P2;PMS_P1;PMS_P2;Temp;Humidity;BMP_temperature;BMP_pressure;BME280_temperature;BME280_humidity;BME280_pressure;Samples;Min_cycle;Max_cycle;Signal;HPM_P1;HPM_P2
2022/03/21 00:02:08;;;;;;;67.78;28.35;;;;;;;;;;6211489;28;20056;-67
2022/03/21 00:05:10;;;;;;;83.70;30.83;;;;;;;;;;6203249;28;20030;-68
2022/03/21 00:08:13;;;;;;;90.00;31.98;;;;;;;;;;6202105;28;20425;-69
2022/03/21 00:11:13;;;;;;;87.68;31.50;;;;;;;;;;6199820;28;20052;-67
2022/03/21 00:14:14;;;;;;;93.22;33.55;;;;;;;;;;6214176;28;20251;-67
2022/03/21 00:17:15;;;;;;;90.20;30.80;;;;;;;;;;6197353;28;20046;-67
2022/03/21 00:20:15;;;;;;;85.40;32.22;;;;;;;;;;6212379;28;20089;-69
2022/03/21 00:23:17;;;;;;;91.72;33.45;;;;;;;;;;6213268;28;20114;-68
2022/03/21 00:26:19;;;;;;;87.32;32.10;;;;;;;;;;6199998;28;20470;-68
2022/03/21 00:29:19;;;;;;;86.93;32.53;;;;;;;;;;6209341;28;20045;-69
2022/03/21 00:32:20;;;;;;;80.72;31.75;;;;;;;;;;6205154;28;20045;-69
2022/03/21 00:35:21;;;;;;;86.43;31.83;;;;;;;;;;6211976;28;20497;-69
2022/03/21 00:38:22;;;;;;;87.47;30.92;;;;;;;;;;6214827;28;20104;-69
2022/03/21 00:41:23;;;;;;;83.82;31.35;;;;;;;;;;6211677;28;20481;-69
2022/03/21 00:44:24;;;;;;;83.72;32.45;;;;;;;;;;6213725;28;20066;-68
2022/03/21 00:47:25;;;;;;;84.45;30.45;;;;;;;;;;6203636;28;20485;-68
2022/03/21 00:50:25;;;;;;;83.32;30.65;;;;;;;;;;6213476;28;20045;-68
2022/03/21 00:53:26;;;;;;;81.22;32.10;;;;;;;;;;6207906;28;20506;-68
2022/03/21 00:56:30;;;;;;;82.55;30.58;;;;;;;;;;6201599;28;20516;-68
2022/03/21 00:59:30;;;;;;;90.15;33.92;;;;;;;;;;6205386;28;20041;-69
2022/03/21 01:02:31;;;;;;;89.43;34.47;;;;;;;;;;6205599;28;20112;-68
2022/03/21 01:05:32;;;;;;;86.95;32.08;;;;;;;;;;6213068;28;20152;-69
2022/03/21 01:08:33;;;;;;;82.65;31.42;;;;;;;;;;6201299;28;20473;-68
2022/03/21 01:11:34;;;;;;;81.28;32.30;;;;;;;;;;6197183;28;20060;-69
2022/03/21 01:14:35;;;;;;;87.47;33.90;;;;;;;;;;6200525;28;20395;-69
2022/03/21 01:17:36;;;;;;;81.88;32.55;;;;;;;;;;6209387;28;20136;-69
2022/03/21 01:20:36;;;;;;;69.45;30.10;;;;;;;;;;6200490;28;20503;-68
2022/03/21 01:23:37;;;;;;;105.03;39.22;;;;;;;;;;6199167;28;20038;-69
2022/03/21 01:26:38;;;;;;;73.32;30.20;;;;;;;;;;6194297;28;20054;-69
2022/03/21 01:29:38;;;;;;;65.57;28.58;;;;;;;;;;6191433;28;20074;-68
2022/03/21 01:32:42;;;;;;;68.43;29.63;;;;;;;;;;6181731;28;20116;-69
2022/03/21 01:35:43;;;;;;;78.05;30.42;;;;;;;;;;6179969;28;20185;-69
2022/03/21 01:38:45;;;;;;;75.03;30.88;;;;;;;;;;6182072;28;20054;-69
2022/03/21 01:41:46;;;;;;;64.68;27.50;;;;;;;;;;6171077;28;20053;-69
2022/03/21 01:44:51;;;;;;;75.22;31.80;;;;;;;;;;6180877;28;20117;-69
2022/03/21 01:47:51;;;;;;;76.32;30.95;;;;;;;;;;6181214;28;20073;-69
2022/03/21 01:50:52;;;;;;;74.28;30.13;;;;;;;;;;6182261;28;20057;-68
2022/03/21 01:57:14;;;;;;;76.97;31.85;;;;;;;;;;6184917;28;20096;-68
2022/03/21 02:00:15;;;;;;;70.75;28.30;;;;;;;;;;6182531;28;20560;-69
2022/03/21 02:03:18;;;;;;;75.25;31.73;;;;;;;;;;6183662;28;20058;-68
2022/03/21 02:06:21;;;;;;;76.82;30.55;;;;;;;;;;6182635;28;20047;-68
2022/03/21 02:09:22;;;;;;;75.50;31.50;;;;;;;;;;6183394;28;20076;-68
2022/03/21 02:12:23;;;;;;;78.22;30.17;;;;;;;;;;6184643;28;20043;-68
2022/03/21 02:15:24;;;;;;;83.80;32.33;;;;;;;;;;6192884;28;20400;-69
2022/03/21 02:18:26;;;;;;;87.10;35.78;;;;;;;;;;6190726;28;20060;-68
2022/03/21 02:21:37;;;;;;;100.53;36.72;;;;;;;;;;6174768;28;20055;-68
2022/03/21 02:24:52;;;;;;;90.60;36.25;;;;;;;;;;6179361;28;20520;-68
2022/03/21 02:27:56;;;;;;;95.82;38.22;;;;;;;;;;6185228;28;20445;-68
2022/03/21 02:30:58;;;;;;;84.57;33.63;;;;;;;;;;6183928;28;20050;-68
2022/03/21 02:33:59;;;;;;;;;;;;;;;;;;6182610;28;20074;-68
2022/03/21 02:37:00;;;;;;;87.25;32.55;;;;;;;;;;6182958;28;19944;-68
2022/03/21 02:40:02;;;;;;;87.15;34.83;;;;;;;;;;6181735;28;20047;-68
2022/03/21 02:43:02;;;;;;;102.25;39.70;;;;;;;;;;6181604;28;20049;-69
2022/03/21 02:46:05;;;;;;;103.70;38.75;;;;;;;;;;6177848;28;20414;-68
2022/03/21 02:49:06;;;;;;;90.40;35.17;;;;;;;;;;6185149;28;20042;-69
2022/03/21 02:52:09;;;;;;;88.50;35.88;;;;;;;;;;6192747;28;20074;-68
2022/03/21 02:55:10;;;;;;;85.75;37.28;;;;;;;;;;6181502;28;20046;-68
2022/03/21 02:58:11;;;;;;;87.72;37.03;;;;;;;;;;6182658;28;20192;-68
2022/03/21 03:01:14;;;;;;;88.88;37.08;;;;;;;;;;6183621;28;20776;-68
2022/03/21 03:04:15;;;;;;;87.57;36.47;;;;;;;;;;6173803;28;20058;-69
2022/03/21 03:07:16;;;;;;;96.00;36.20;;;;;;;;;;6184071;28;20050;-70
2022/03/21 03:10:17;;;;;;;87.60;35.92;;;;;;;;;;6184503;28;20569;-69
2022/03/21 03:13:18;;;;;;;95.20;35.65;;;;;;;;;;6180847;28;20149;-68
2022/03/21 03:16:19;;;;;;;87.65;36.15;;;;;;;;;;6182580;28;20049;-68
2022/03/21 03:19:19;;;;;;;79.47;33.15;;;;;;;;;;6181151;28;20223;-68
2022/03/21 03:22:23;;;;;;;83.05;34.05;;;;;;;;;;6180088;28;20137;-68
2022/03/21 03:25:23;;;;;;;84.15;34.65;;;;;;;;;;6179820;28;20410;-68
2022/03/21 03:28:25;;;;;;;84.28;34.28;;;;;;;;;;6185338;28;20077;-69
2022/03/21 03:31:26;;;;;;;77.65;31.30;;;;;;;;;;6182903;28;20051;-68
2022/03/21 03:34:27;;;;;;;70.25;27.95;;;;;;;;;;6184917;28;20094;-68
2022/03/21 03:37:28;;;;;;;70.65;29.65;;;;;;;;;;6179527;28;20042;-68
2022/03/21 03:40:29;;;;;;;72.20;31.00;;;;;;;;;;6179989;28;20101;-68
2022/03/21 03:43:29;;;;;;;65.80;27.85;;;;;;;;;;6169285;28;20209;-68
2022/03/21 03:46:30;;;;;;;67.32;28.50;;;;;;;;;;6181931;28;20065;-67
2022/03/21 03:49:31;;;;;;;69.47;30.35;;;;;;;;;;6180863;28;20188;-67
2022/03/21 03:52:31;;;;;;;69.00;29.30;;;;;;;;;;6183799;28;20047;-65
2022/03/21 03:55:32;;;;;;;75.72;30.83;;;;;;;;;;6177315;28;20050;-67
2022/03/21 03:58:35;;;;;;;71.55;29.90;;;;;;;;;;6181224;28;20070;-67
2022/03/21 04:01:37;;;;;;;69.60;30.27;;;;;;;;;;6178761;28;20095;-68
2022/03/21 04:04:38;;;;;;;72.72;32.92;;;;;;;;;;6177365;28;20081;-67
2022/03/21 04:07:39;;;;;;;78.82;33.05;;;;;;;;;;6176510;28;20077;-67
2022/03/21 04:10:40;;;;;;;81.32;34.67;;;;;;;;;;6178751;28;20133;-67
2022/03/21 04:13:41;;;;;;;82.43;35.25;;;;;;;;;;6180948;28;20084;-68
2022/03/21 04:16:44;;;;;;;89.32;35.95;;;;;;;;;;6179346;28;20101;-67
2022/03/21 04:19:45;;;;;;;84.55;35.70;;;;;;;;;;6181605;28;20050;-67
2022/03/21 04:22:45;;;;;;;85.72;35.75;;;;;;;;;;6182606;28;20046;-67
2022/03/21 04:25:46;;;;;;;78.78;33.45;;;;;;;;;;6182325;28;20133;-67
2022/03/21 04:28:49;;;;;;;78.05;33.20;;;;;;;;;;6182000;28;20136;-68
2022/03/21 04:31:49;;;;;;;78.95;34.25;;;;;;;;;;6177004;28;20065;-68
2022/03/21 04:34:50;;;;;;;87.28;34.00;;;;;;;;;;6177520;28;20046;-68
2022/03/21 04:37:51;;;;;;;84.97;31.23;;;;;;;;;;6175336;28;20557;-69
2022/03/21 04:40:52;;;;;;;76.00;29.35;;;;;;;;;;6178124;28;20464;-69
2022/03/21 04:43:52;;;;;;;74.65;30.27;;;;;;;;;;6187462;28;20100;-68
2022/03/21 04:46:54;;;;;;;68.60;30.63;;;;;;;;;;6188542;28;20041;-68
2022/03/21 04:49:55;;;;;;;73.47;32.25;;;;;;;;;;6193333;28;20061;-68
2022/03/21 04:52:56;;;;;;;86.68;35.03;;;;;;;;;;6188480;28;20038;-68
2022/03/21 04:55:56;;;;;;;81.18;31.98;;;;;;;;;;6190728;28;20054;-68
2022/03/21 04:58:57;;;;;;;84.72;34.08;;;;;;;;;;6196155;28;20046;-67
2022/03/21 05:01:58;;;;;;;88.68;35.47;;;;;;;;;;6191939;28;20462;-68
2022/03/21 05:04:58;;;;;;;82.57;34.20;;;;;;;;;;6190172;28;20162;-68
2022/03/21 05:07:59;;;;;;;95.63;35.55;;;;;;;;;;6191438;28;20472;-69
2022/03/21 05:11:00;;;;;;;93.95;36.33;;;;;;;;;;6191751;28;20061;-68
2022/03/21 05:14:02;;;;;;;90.00;34.42;;;;;;;;;;6192665;28;20653;-68
2022/03/21 05:17:05;;;;;;;102.28;37.20;;;;;;;;;;6192237;28;20410;-68
2022/03/21 05:20:27;;;;;;;103.22;38.75;;;;;;;;;;6193864;28;20412;-68
2022/03/21 05:36:50;;;;;;;100.82;37.90;;;;;;;;;;6195212;28;20066;-69
2022/03/21 05:43:11;;;;;;;120.50;41.88;;;;;;;;;;6188991;28;20042;-68
2022/03/21 05:46:12;;;;;;;126.53;40.92;;;;;;;;;;6196338;28;20208;-67
2022/03/21 05:49:12;;;;;;;111.05;38.85;;;;;;;;;;6196793;28;20078;-67
2022/03/21 05:52:13;;;;;;;112.20;41.40;;;;;;;;;;6193622;28;20108;-69
2022/03/21 05:55:14;;;;;;;108.43;40.58;;;;;;;;;;6195510;28;20050;-68
2022/03/21 05:58:14;;;;;;;106.78;41.55;;;;;;;;;;6197949;28;20142;-68
2022/03/21 06:01:18;;;;;;;130.88;44.15;;;;;;;;;;6193354;28;20104;-68
2022/03/21 06:04:19;;;;;;;115.55;40.20;;;;;;;;;;6195351;28;20513;-68
2022/03/21 06:07:21;;;;;;;102.25;38.92;;;;;;;;;;6195560;28;20054;-67
2022/03/21 06:10:22;;;;;;;87.03;33.57;;;;;;;;;;6195566;28;20054;-67
2022/03/21 06:13:22;;;;;;;86.75;33.80;;;;;;;;;;6189600;28;20067;-67
2022/03/21 06:16:23;;;;;;;84.07;32.65;;;;;;;;;;6192790;28;20121;-69
2022/03/21 06:26:01;;;;;;;98.15;34.97;;;;;;;;;;6236943;28;20077;-69
2022/03/21 06:29:01;;;;;;;100.82;35.38;;;;;;;;;;6234197;28;20419;-68
2022/03/21 06:32:04;;;;;;;92.40;34.47;;;;;;;;;;6244243;28;20053;-66
2022/03/21 06:35:09;;;;;;;85.38;33.15;;;;;;;;;;6240746;28;20057;-66
2022/03/21 06:38:10;;;;;;;93.55;33.60;;;;;;;;;;6239723;28;20045;-69
2022/03/21 06:41:11;;;;;;;99.88;34.50;;;;;;;;;;6241083;28;20398;-68
2022/03/21 06:44:12;;;;;;;96.50;33.70;;;;;;;;;;6241395;28;20459;-67
2022/03/21 06:47:12;;;;;;;94.60;33.95;;;;;;;;;;6241870;28;20128;-64
2022/03/21 06:50:13;;;;;;;76.68;30.10;;;;;;;;;;6238600;28;20054;-69
2022/03/21 06:53:15;;;;;;;73.80;29.80;;;;;;;;;;6237871;28;20057;-67
2022/03/21 06:56:16;;;;;;;68.93;28.98;;;;;;;;;;6237546;28;20147;-67
2022/03/21 06:59:17;;;;;;;67.35;27.25;;;;;;;;;;6237962;28;20073;-69
2022/03/21 07:02:19;;;;;;;67.13;27.00;;;;;;;;;;6237532;28;20534;-68
2022/03/21 07:05:20;;;;;;;;;;;;;;;;;;6238451;28;20057;-69
2022/03/21 07:08:20;;;;;;;64.28;26.10;;;;;;;;;;6237458;28;19953;-69
2022/03/21 07:11:22;;;;;;;68.13;27.13;;;;;;;;;;6237423;28;20060;-69
2022/03/21 07:14:23;;;;;;;66.38;27.50;;;;;;;;;;6234076;28;20144;-70
2022/03/21 07:17:23;;;;;;;74.38;28.25;;;;;;;;;;6238167;28;20195;-67
2022/03/21 07:20:25;;;;;;;66.60;25.63;;;;;;;;;;6240862;28;20477;-69
2022/03/21 07:23:26;;;;;;;58.33;23.38;;;;;;;;;;6240100;28;20119;-69
2022/03/21 07:26:27;;;;;;;52.38;23.70;;;;;;;;;;6242579;28;20136;-69
2022/03/21 07:29:27;;;;;;;50.15;23.42;;;;;;;;;;6242090;28;20053;-69
2022/03/21 07:32:28;;;;;;;57.88;23.15;;;;;;;;;;6237393;28;20073;-69
2022/03/21 07:35:29;;;;;;;59.88;24.60;;;;;;;;;;6240528;28;20115;-69
2022/03/21 07:38:31;;;;;;;54.08;23.00;;;;;;;;;;6238449;28;20448;-69
2022/03/21 07:41:31;;;;;;;45.38;22.20;;;;;;;;;;6240192;28;20356;-69
2022/03/21 07:47:52;;;;;;;53.20;22.08;;;;;;;;;;6237564;28;20045;-69
2022/03/21 07:50:56;;;;;;;53.70;22.05;;;;;;;;;;6236474;28;20123;-70
2022/03/21 07:53:56;;;;;;;48.30;21.70;;;;;;;;;;6236269;28;20089;-69
2022/03/21 07:56:57;;;;;;;47.38;21.45;;;;;;;;;;6237208;28;20487;-70
2022/03/21 07:59:58;;;;;;;52.40;21.77;;;;;;;;;;6235311;28;20049;-69
2022/03/21 08:02:59;;;;;;;45.83;21.30;;;;;;;;;;6235534;28;20050;-69
2022/03/21 08:05:59;;;;;;;45.47;20.15;;;;;;;;;;6232724;28;20064;-71
2022/03/21 08:09:00;;;;;;;45.78;21.05;;;;;;;;;;6233237;28;20515;-70
2022/03/21 08:12:02;;;;;;;47.67;21.17;;;;;;;;;;6233511;28;20128;-69
2022/03/21 08:15:04;;;;;;;44.08;19.58;;;;;;;;;;6234259;28;20049;-69
2022/03/21 08:18:05;;;;;;;41.13;18.58;;;;;;;;;;6234893;28;20057;-70
2022/03/21 08:21:06;;;;;;;36.90;17.70;;;;;;;;;;6234205;28;20452;-70
2022/03/21 08:24:06;;;;;;;36.13;17.17;;;;;;;;;;6234766;28;20068;-69
2022/03/21 08:27:07;;;;;;;38.22;16.73;;;;;;;;;;6231766;28;20232;-69
2022/03/21 08:30:08;;;;;;;35.38;16.77;;;;;;;;;;6234496;28;20480;-71
2022/03/21 08:33:10;;;;;;;36.97;17.30;;;;;;;;;;6234816;28;20472;-70
2022/03/21 08:36:12;;;;;;;36.03;16.50;;;;;;;;;;6238704;28;20471;-69
2022/03/21 08:39:12;;;;;;;38.37;17.73;;;;;;;;;;6241493;28;20123;-72
2022/03/21 08:42:13;;;;;;;39.88;18.20;;;;;;;;;;6238541;28;20299;-70
2022/03/21 08:45:15;;;;;;;37.20;18.58;;;;;;;;;;6236550;28;20053;-71
2022/03/21 08:48:15;;;;;;;35.65;18.42;;;;;;;;;;6235851;28;20044;-70
2022/03/21 08:51:18;;;;;;;42.08;18.88;;;;;;;;;;6237193;28;20759;-72
2022/03/21 08:54:18;;;;;;;;;;;;;;;;;;6235531;28;20346;-70
2022/03/21 08:57:19;;;;;;;38.33;17.67;;;;;;;;;;6238413;28;19975;-70
2022/03/21 09:00:20;;;;;;;35.38;17.35;;;;;;;;;;6240844;28;20548;-71
2022/03/21 09:03:20;;;;;;;35.72;16.63;;;;;;;;;;6238468;28;20064;-70
2022/03/21 09:06:21;;;;;;;34.58;16.38;;;;;;;;;;6237374;28;20125;-71
2022/03/21 09:09:22;;;;;;;32.53;16.55;;;;;;;;;;6235930;28;20073;-72
2022/03/21 09:12:23;;;;;;;35.15;18.10;;;;;;;;;;6230969;28;20045;-71
2022/03/21 09:15:25;;;;;;;39.15;19.25;;;;;;;;;;6233822;28;20107;-70
2022/03/21 09:18:25;;;;;;;38.83;18.35;;;;;;;;;;6237428;28;20080;-73
2022/03/21 09:21:27;;;;;;;34.95;17.85;;;;;;;;;;6234246;28;20049;-74
2022/03/21 09:24:28;;;;;;;36.50;17.15;;;;;;;;;;6233186;28;20496;-68
2022/03/21 09:27:29;;;;;;;37.80;18.87;;;;;;;;;;6232478;28;20412;-69
2022/03/21 09:30:29;;;;;;;39.13;17.30;;;;;;;;;;6235072;28;20133;-72
2022/03/21 09:33:30;;;;;;;37.65;17.55;;;;;;;;;;6233814;28;20041;-70
2022/03/21 09:36:31;;;;;;;35.88;17.02;;;;;;;;;;6234075;28;20511;-73
2022/03/21 09:39:32;;;;;;;35.92;17.58;;;;;;;;;;6231132;28;20084;-75
2022/03/21 09:42:36;;;;;;;39.92;17.67;;;;;;;;;;6232266;28;20041;-71
2022/03/21 09:45:38;;;;;;;35.60;18.48;;;;;;;;;;6231456;28;20053;-74
2022/03/21 09:48:38;;;;;;;34.57;17.07;;;;;;;;;;6232571;28;20538;-72
2022/03/21 09:51:40;;;;;;;34.78;17.98;;;;;;;;;;6233970;28;20064;-70
2022/03/21 09:54:40;;;;;;;30.52;15.98;;;;;;;;;;6234414;28;20148;-74
2022/03/21 09:57:41;;;;;;;33.35;16.10;;;;;;;;;;6235396;28;20480;-69
2022/03/21 10:00:44;;;;;;;37.25;17.05;;;;;;;;;;6238548;28;20473;-69
2022/03/21 10:03:44;;;;;;;35.17;17.25;;;;;;;;;;6238552;28;20123;-71
2022/03/21 10:06:45;;;;;;;33.28;16.13;;;;;;;;;;6242419;28;20519;-69
2022/03/21 10:10:04;;;;;;;32.55;16.73;;;;;;;;;;6243660;28;20048;-72
2022/03/21 10:13:09;;;;;;;34.63;15.77;;;;;;;;;;6242191;28;20041;-70
2022/03/21 10:16:10;;;;;;;28.38;15.82;;;;;;;;;;6241465;28;20046;-71
2022/03/21 10:19:10;;;;;;;29.48;16.33;;;;;;;;;;6237687;28;20180;-75
2022/03/21 10:22:21;;;;;;;30.27;16.02;;;;;;;;;;6239032;28;20238;-71
2022/03/21 10:25:22;;;;;;;30.42;15.38;;;;;;;;;;6236686;28;20726;-70
2022/03/21 10:28:37;;;;;;;28.85;14.07;;;;;;;;;;6240534;28;20047;-70
2022/03/21 10:31:40;;;;;;;31.17;13.85;;;;;;;;;;6239247;28;20083;-71
2022/03/21 10:34:42;;;;;;;27.45;12.85;;;;;;;;;;6236222;28;20107;-70
2022/03/21 10:37:53;;;;;;;32.42;14.23;;;;;;;;;;6235325;28;20042;-78
2022/03/21 10:40:53;;;;;;;26.25;13.23;;;;;;;;;;6234419;28;20048;-71
2022/03/21 10:43:55;;;;;;;25.52;12.60;;;;;;;;;;6235875;28;20560;-71
2022/03/21 10:47:03;;;;;;;26.65;12.23;;;;;;;;;;6237134;28;20045;-71
2022/03/21 10:50:03;;;;;;;26.38;12.10;;;;;;;;;;6241199;28;20080;-71
2022/03/21 10:53:10;;;;;;;26.50;12.95;;;;;;;;;;6239024;28;20053;-71
2022/03/21 10:56:11;;;;;;;23.30;11.05;;;;;;;;;;6237472;28;20051;-73
2022/03/21 10:59:16;;;;;;;24.95;11.85;;;;;;;;;;6238111;28;20049;-71
2022/03/21 11:02:17;;;;;;;21.90;11.25;;;;;;;;;;6236033;28;20537;-71
2022/03/21 11:05:20;;;;;;;21.55;11.50;;;;;;;;;;6240475;28;20052;-75
2022/03/21 11:08:20;;;;;;;23.75;11.48;;;;;;;;;;6239154;28;20107;-74
2022/03/21 11:11:22;;;;;;;26.25;11.93;;;;;;;;;;6241141;28;20037;-73
2022/03/21 11:14:23;;;;;;;24.00;11.50;;;;;;;;;;6241460;28;20484;-70
2022/03/21 11:17:24;;;;;;;20.97;10.47;;;;;;;;;;6241297;28;20103;-73
2022/03/21 11:20:28;;;;;;;19.08;9.73;;;;;;;;;;6241608;28;20864;-70
2022/03/21 11:23:30;;;;;;;22.40;11.57;;;;;;;;;;6237950;28;20069;-75
2022/03/21 11:26:45;;;;;;;19.20;9.23;;;;;;;;;;6241837;28;20049;-70
2022/03/21 11:29:58;;;;;;;20.42;11.48;;;;;;;;;;6231446;28;20075;-71
2022/03/21 11:33:06;;;;;;;20.20;11.10;;;;;;;;;;6225253;28;20099;-70
2022/03/21 11:36:09;;;;;;;20.65;10.27;;;;;;;;;;6230105;28;20103;-70
2022/03/21 11:39:12;;;;;;;20.17;11.02;;;;;;;;;;6230575;28;20145;-73
2022/03/21 11:42:22;;;;;;;20.17;10.52;;;;;;;;;;6229216;28;20136;-72
2022/03/21 11:45:34;;;;;;;21.45;11.02;;;;;;;;;;6228186;28;20096;-71
2022/03/21 11:48:35;;;;;;;;;;;;;;;;;;6225247;28;20088;-69
2022/03/21 11:51:56;;;;;;;21.50;10.52;;;;;;;;;;6223093;28;20284;-73
2022/03/21 11:54:58;;;;;;;33.13;16.52;;;;;;;;;;6225606;28;20104;-71
2022/03/21 11:58:21;;;;;;;47.47;19.30;;;;;;;;;;6226030;28;20064;-73
2022/03/21 12:01:28;;;;;;;33.55;14.20;;;;;;;;;;6223812;28;20081;-72
2022/03/21 12:04:29;;;;;;;28.83;13.10;;;;;;;;;;6230146;28;20049;-70
2022/03/21 12:07:32;;;;;;;46.30;15.77;;;;;;;;;;6234907;28;20041;-73
2022/03/21 12:10:38;;;;;;;22.75;11.20;;;;;;;;;;6227273;28;20172;-72
2022/03/21 12:13:46;;;;;;;19.65;10.77;;;;;;;;;;6233737;28;20306;-70
2022/03/21 12:17:02;;;;;;;24.00;12.77;;;;;;;;;;6231444;28;20053;-74
2022/03/21 12:20:04;;;;;;;31.73;13.45;;;;;;;;;;6228142;28;20053;-71
2022/03/21 12:23:23;;;;;;;29.25;11.77;;;;;;;;;;6232088;28;20124;-72
2022/03/21 12:26:33;;;;;;;27.23;13.18;;;;;;;;;;6230529;28;20591;-71
2022/03/21 12:29:34;;;;;;;27.58;12.73;;;;;;;;;;6226444;28;20527;-72
2022/03/21 12:32:48;;;;;;;30.90;12.82;;;;;;;;;;6233848;28;20049;-70
2022/03/21 12:35:48;;;;;;;24.77;12.93;;;;;;;;;;6232757;28;20176;-73
2022/03/21 12:38:50;;;;;;;24.05;12.10;;;;;;;;;;6225886;28;20049;-72
2022/03/21 12:41:50;;;;;;;23.42;11.48;;;;;;;;;;6226461;28;20053;-71
2022/03/21 12:44:51;;;;;;;26.60;12.50;;;;;;;;;;6229200;28;20867;-73
2022/03/21 12:47:52;;;;;;;24.58;11.93;;;;;;;;;;6228065;28;20678;-69
2022/03/21 12:50:53;;;;;;;25.10;12.05;;;;;;;;;;6227177;28;20489;-72
2022/03/21 12:53:56;;;;;;;30.48;12.15;;;;;;;;;;6230229;28;20037;-73
2022/03/21 12:57:06;;;;;;;28.13;12.75;;;;;;;;;;6226489;28;20064;-72
2022/03/21 13:00:14;;;;;;;22.17;12.40;;;;;;;;;;6223026;28;20589;-72
2022/03/21 13:03:17;;;;;;;23.65;12.80;;;;;;;;;;6224989;28;20054;-74
2022/03/21 13:13:01;;;;;;;24.13;11.48;;;;;;;;;;6224308;28;20484;-70
2022/03/21 13:16:04;;;;;;;22.63;10.85;;;;;;;;;;6221807;28;20080;-70
2022/03/21 13:19:09;;;;;;;24.65;11.75;;;;;;;;;;6220806;28;21550;-72
2022/03/21 13:22:10;;;;;;;24.67;12.23;;;;;;;;;;6224468;28;20144;-71
2022/03/21 13:25:22;;;;;;;25.50;11.70;;;;;;;;;;6223327;28;20054;-71
2022/03/21 13:28:31;;;;;;;30.27;14.75;;;;;;;;;;6226840;28;20080;-72
2022/03/21 13:31:33;;;;;;;30.02;13.70;;;;;;;;;;6220931;28;20069;-73
2022/03/21 13:34:37;;;;;;;27.33;13.02;;;;;;;;;;6221894;28;20577;-73
2022/03/21 13:37:39;;;;;;;29.63;13.50;;;;;;;;;;6223051;28;20072;-70
2022/03/21 13:40:44;;;;;;;32.28;14.38;;;;;;;;;;6223120;28;20061;-73
2022/03/21 13:44:02;;;;;;;29.90;13.82;;;;;;;;;;6234667;28;20631;-70
2022/03/21 13:47:11;;;;;;;24.92;12.27;;;;;;;;;;6234087;28;20058;-72
2022/03/21 13:50:12;;;;;;;27.55;12.85;;;;;;;;;;6234078;28;20058;-71
2022/03/21 13:53:28;;;;;;;25.35;12.80;;;;;;;;;;6235490;28;20053;-69
2022/03/21 13:56:29;;;;;;;28.70;13.43;;;;;;;;;;6234934;28;20072;-70
2022/03/21 13:59:30;;;;;;;24.20;12.80;;;;;;;;;;6234705;28;20091;-70
2022/03/21 14:02:47;;;;;;;31.80;13.30;;;;;;;;;;6235504;28;20049;-68
2022/03/21 14:05:55;;;;;;;27.48;12.60;;;;;;;;;;6233809;28;20084;-72
2022/03/21 14:09:02;;;;;;;31.17;13.98;;;;;;;;;;6223872;28;20057;-73
2022/03/21 14:12:06;;;;;;;30.65;14.00;;;;;;;;;;6230706;28;20774;-69
2022/03/21 14:15:09;;;;;;;28.95;13.50;;;;;;;;;;6232994;28;20128;-70
2022/03/21 14:18:13;;;;;;;27.10;13.30;;;;;;;;;;6234964;28;20103;-72
2022/03/21 14:21:14;;;;;;;26.67;13.73;;;;;;;;;;6229140;28;20049;-70
2022/03/21 14:24:16;;;;;;;21.92;12.02;;;;;;;;;;6226872;28;20081;-71
2022/03/21 14:27:16;;;;;;;25.85;12.52;;;;;;;;;;6229600;28;21413;-69
2022/03/21 14:30:17;;;;;;;25.88;11.27;;;;;;;;;;6231735;28;20057;-68
2022/03/21 14:33:18;;;;;;;27.05;12.88;;;;;;;;;;6233331;28;20053;-73
2022/03/21 14:36:18;;;;;;;23.95;12.75;;;;;;;;;;6232774;28;20073;-70
2022/03/21 14:39:19;;;;;;;28.90;14.48;;;;;;;;;;6227237;28;20507;-69
2022/03/21 14:42:20;;;;;;;35.08;13.35;;;;;;;;;;6228999;28;20068;-70
2022/03/21 14:45:22;;;;;;;22.60;11.13;;;;;;;;;;6226790;28;20132;-70
2022/03/21 14:48:24;;;;;;;28.65;13.20;;;;;;;;;;6227426;28;20192;-70
2022/03/21 14:51:25;;;;;;;24.13;11.85;;;;;;;;;;6222388;28;20045;-71
2022/03/21 14:54:25;;;;;;;23.67;11.05;;;;;;;;;;6223307;28;20340;-70
2022/03/21 14:57:26;;;;;;;24.23;11.57;;;;;;;;;;6229161;28;20045;-68
2022/03/21 15:00:29;;;;;;;21.98;10.52;;;;;;;;;;6224020;28;20054;-68
2022/03/21 15:03:30;;;;;;;;;;;;;;;;;;6225647;28;20049;-72
2022/03/21 15:06:30;;;;;;;24.27;11.23;;;;;;;;;;6224146;28;19921;-73
2022/03/21 15:10:20;;;;;;;23.08;10.93;;;;;;;;;;6225821;28;20049;-71
2022/03/21 15:12:55;;;;;;;29.10;11.75;;;;;;;;;;6226061;28;20864;-74
2022/03/21 15:15:55;;;;;;;25.08;11.25;;;;;;;;;;6225144;28;20033;-70
2022/03/21 15:18:56;;;;;;;27.20;11.90;;;;;;;;;;6220565;28;20049;-71
2022/03/21 15:21:58;;;;;;;24.35;11.88;;;;;;;;;;6224814;28;20049;-73
2022/03/21 15:24:59;;;;;;;25.88;12.32;;;;;;;;;;6223291;28;20728;-71
2022/03/21 15:27:59;;;;;;;33.00;12.95;;;;;;;;;;6222838;28;20049;-71
2022/03/21 15:31:02;;;;;;;24.05;11.00;;;;;;;;;;6206040;28;20045;-70
2022/03/21 15:34:02;;;;;;;26.45;12.43;;;;;;;;;;6223328;28;20755;-69
2022/03/21 15:43:46;;;;;;;26.55;11.75;;;;;;;;;;6233611;28;20614;-62
2022/03/21 15:46:46;;;;;;;30.00;13.00;;;;;;;;;;6234256;28;20092;-69
2022/03/21 15:49:49;;;;;;;29.00;13.52;;;;;;;;;;6236182;28;20044;-72
2022/03/21 15:52:49;;;;;;;36.67;14.70;;;;;;;;;;6236863;28;20049;-78
2022/03/21 15:55:51;;;;;;;27.33;13.10;;;;;;;;;;6234158;28;20120;-72
2022/03/21 15:58:52;;;;;;;31.73;14.32;;;;;;;;;;6232782;28;20053;-72
2022/03/21 16:01:53;;;;;;;42.42;16.20;;;;;;;;;;6234174;28;20080;-70
2022/03/21 16:04:53;;;;;;;39.78;16.45;;;;;;;;;;6230868;28;20048;-75
2022/03/21 16:07:55;;;;;;;32.85;15.05;;;;;;;;;;6233596;28;20103;-68
2022/03/21 16:10:56;;;;;;;;;;;;;;;;;;6236182;28;20183;-74
2022/03/21 16:13:57;;;;;;;36.72;15.57;;;;;;;;;;6235496;28;20654;-72
2022/03/21 16:16:58;;;;;;;42.40;20.23;;;;;;;;;;6239887;28;20053;-73
2022/03/21 16:19:59;;;;;;;54.00;24.05;;;;;;;;;;6239427;28;20102;-74
2022/03/21 16:22:59;;;;;;;51.72;24.23;;;;;;;;;;6241572;28;20480;-73
2022/03/21 16:26:00;;;;;;;55.78;23.73;;;;;;;;;;6243126;28;20069;-74
2022/03/21 16:29:01;;;;;;;55.83;24.15;;;;;;;;;;6235751;28;20129;-74
2022/03/21 16:32:07;;;;;;;57.05;27.02;;;;;;;;;;6241934;28;20056;-72
2022/03/21 16:35:10;;;;;;;62.35;26.40;;;;;;;;;;6241842;28;20049;-71
2022/03/21 16:38:11;;;;;;;54.33;25.38;;;;;;;;;;6242853;28;20072;-73
2022/03/21 16:41:12;;;;;;;57.33;25.98;;;;;;;;;;6241311;28;20393;-70
2022/03/21 16:44:13;;;;;;;54.78;23.45;;;;;;;;;;6242206;28;20088;-74
2022/03/21 16:47:13;;;;;;;48.78;23.05;;;;;;;;;;6240807;28;20077;-71
2022/03/21 16:50:14;;;;;;;67.53;31.92;;;;;;;;;;6240798;28;20044;-74
2022/03/21 16:53:15;;;;;;;123.72;51.28;;;;;;;;;;6242069;28;20404;-73
2022/03/21 16:56:17;;;;;;;117.22;50.10;;;;;;;;;;6240228;28;20073;-71
2022/03/21 16:59:18;;;;;;;101.40;38.83;;;;;;;;;;6241559;28;20043;-72
2022/03/21 17:02:19;;;;;;;72.22;27.45;;;;;;;;;;6242071;28;20450;-75
2022/03/21 17:05:20;;;;;;;78.40;26.80;;;;;;;;;;6242041;28;20475;-74
2022/03/21 17:08:23;;;;;;;69.50;26.08;;;;;;;;;;6238885;28;20041;-69
2022/03/21 17:11:23;;;;;;;74.75;29.67;;;;;;;;;;6237264;28;20120;-66
2022/03/21 17:14:25;;;;;;;71.72;28.80;;;;;;;;;;6240141;28;20116;-69
2022/03/21 17:17:25;;;;;;;77.22;29.98;;;;;;;;;;6240465;28;20136;-70
2022/03/21 17:23:46;;;;;;;89.93;32.65;;;;;;;;;;6244631;28;20054;-71
2022/03/21 17:26:47;;;;;;;103.50;36.10;;;;;;;;;;6246028;28;20555;-71
2022/03/21 17:29:47;;;;;;;101.10;37.47;;;;;;;;;;6244700;28;20041;-72
2022/03/21 17:32:48;;;;;;;92.38;35.58;;;;;;;;;;6245348;28;20045;-72
2022/03/21 17:35:51;;;;;;;93.97;34.47;;;;;;;;;;6245187;28;20050;-73
2022/03/21 17:38:53;;;;;;;92.22;34.10;;;;;;;;;;6241923;28;21043;-72
2022/03/21 17:41:54;;;;;;;74.47;28.88;;;;;;;;;;6239503;28;20049;-76
2022/03/21 17:44:56;;;;;;;71.65;26.92;;;;;;;;;;6245421;28;20416;-75
2022/03/21 17:47:58;;;;;;;68.90;27.57;;;;;;;;;;6244757;28;20523;-73
2022/03/21 17:51:01;;;;;;;67.68;27.67;;;;;;;;;;6244415;28;20298;-74
2022/03/21 17:54:01;;;;;;;65.95;26.90;;;;;;;;;;6244494;28;20042;-74
2022/03/21 17:57:03;;;;;;;62.38;26.73;;;;;;;;;;6244181;28;20042;-74
2022/03/21 18:00:07;;;;;;;58.08;26.17;;;;;;;;;;6244238;28;20049;-78
2022/03/21 18:03:09;;;;;;;64.28;26.67;;;;;;;;;;6246097;28;20053;-74
2022/03/21 18:06:10;;;;;;;69.30;26.73;;;;;;;;;;6242318;28;20050;-73
2022/03/21 18:09:11;;;;;;;74.40;27.52;;;;;;;;;;6239279;28;20118;-76
2022/03/21 18:12:11;;;;;;;78.28;28.15;;;;;;;;;;6231071;28;20049;-65
2022/03/21 18:15:13;;;;;;;78.20;28.85;;;;;;;;;;6212624;28;20718;-68
2022/03/21 18:18:15;;;;;;;73.22;27.95;;;;;;;;;;6217279;28;20053;-70
2022/03/21 18:21:19;;;;;;;78.60;33.28;;;;;;;;;;6220672;28;20049;-75
2022/03/21 18:24:20;;;;;;;168.52;72.70;;;;;;;;;;6219966;28;20092;-76
2022/03/21 18:27:21;;;;;;;95.67;42.67;;;;;;;;;;6223492;28;20061;-74
2022/03/21 18:30:22;;;;;;;76.97;31.40;;;;;;;;;;6224169;28;20120;-77